Time;durP1;ratioP1;P1;durP2;ratioP2;P2;SDS_P1;SDS_P2;PMS_P1;PMS_P2;Temp;Humidity;BMP_temperature;BMP_pressure;BME280_temperature;BME280_humidity;BME280_pressure;Samples;Min_cycle;Max_cycle;Signal;HPM_P1;HPM_P2
2023/07/21 00:03:01;;;;;;;;;;;;;;;20.49;55.05;99351.78;10329097;28;978;-64
2023/07/21 00:07:57;;;;;;;;;;;;;;;20.48;55.04;99352.69;10327837;28;825;-64
2023/07/21 00:12:53;;;;;;;;;;;;;;;20.48;55.09;99352.69;10327790;28;849;-65
2023/07/21 00:17:49;;;;;;;;;;;;;;;20.47;55.17;99354.50;10326814;28;1898;-65
2023/07/21 00:22:46;;;;;;;;;;;;;;;20.47;55.16;99338.63;10327500;28;917;-65
2023/07/21 00:27:41;;;;;;;;;;;;;;;20.46;54.98;99336.94;10326735;28;1128;-65
2023/07/21 00:32:37;;;;;;;;;;;;;;;20.46;55.07;99333.41;10326572;28;1515;-65
2023/07/21 00:37:33;;;;;;;;;;;;;;;20.46;54.94;99328.09;10326962;28;1973;-65
2023/07/21 00:42:29;;;;;;;;;;;;;;;20.46;55.05;99334.28;10326264;28;884;-65
2023/07/21 00:47:25;;;;;;;;;;;;;;;20.45;55.18;99326.41;10325631;28;890;-65
2023/07/21 00:52:21;;;;;;;;;;;;;;;20.44;54.99;99328.22;10325932;28;859;-65
2023/07/21 00:57:17;;;;;;;;;;;;;;;20.45;55.02;99318.47;10326140;28;1890;-65
2023/07/21 01:02:13;;;;;;;;;;;;;;;20.43;55.04;99309.75;10325771;28;929;-65
2023/07/21 01:07:09;;;;;;;;;;;;;;;20.43;55.03;99307.97;10325118;28;1102;-65
2023/07/21 01:12:05;;;;;;;;;;;;;;;20.43;55.16;99301.81;10325543;28;874;-65
2023/07/21 01:17:01;;;;;;;;;;;;;;;20.42;55.21;99305.44;10325248;28;1898;-65
2023/07/21 01:21:57;;;;;;;;;;;;;;;20.42;55.05;99294.84;10325368;28;759;-65
2023/07/21 01:26:53;;;;;;;;;;;;;;;20.41;55.17;99293.13;10328741;28;802;-65
2023/07/21 01:31:49;;;;;;;;;;;;;;;20.41;55.18;99290.47;10334170;28;1116;-65
2023/07/21 01:36:45;;;;;;;;;;;;;;;20.41;55.11;99285.19;10333329;28;1918;-65
2023/07/21 01:41:41;;;;;;;;;;;;;;;20.41;55.01;99271.94;10333366;28;862;-65
2023/07/21 01:46:37;;;;;;;;;;;;;;;20.40;55.11;99263.16;10333142;28;842;-65
2023/07/21 01:51:33;;;;;;;;;;;;;;;20.39;55.12;99264.13;10333665;28;872;-65
2023/07/21 01:56:30;;;;;;;;;;;;;;;20.40;55.02;99249.06;10333218;28;1898;-65
2023/07/21 02:01:26;;;;;;;;;;;;;;;20.39;55.08;99258.81;10333078;28;914;-65
2023/07/21 02:06:22;;;;;;;;;;;;;;;20.37;55.20;99252.75;10332238;28;885;-65
2023/07/21 02:11:20;;;;;;;;;;;;;;;20.38;55.02;99253.59;10332740;28;763;-65
2023/07/21 02:16:16;;;;;;;;;;;;;;;20.36;55.15;99251.91;10331835;28;1951;-65
2023/07/21 02:21:11;;;;;;;;;;;;;;;20.36;55.20;99259.84;10331747;28;921;-65
2023/07/21 02:26:07;;;;;;;;;;;;;;;20.35;55.09;99252.84;10331237;28;967;-65
2023/07/21 02:31:03;;;;;;;;;;;;;;;20.35;55.14;99252.84;10331372;28;1100;-65
2023/07/21 02:35:59;;;;;;;;;;;;;;;20.34;55.21;99243.22;10331144;28;1910;-65
2023/07/21 02:40:58;;;;;;;;;;;;;;;20.34;55.02;99234.44;10330723;28;789;-65
2023/07/21 02:45:54;;;;;;;;;;;;;;;20.33;55.02;99230.94;10331442;28;877;-65
2023/07/21 02:50:50;;;;;;;;;;;;;;;20.33;55.05;99232.72;10330884;28;931;-65
2023/07/21 02:55:45;;;;;;;;;;;;;;;20.33;55.21;99230.06;10330765;28;1897;-65
2023/07/21 03:00:41;;;;;;;;;;;;;;;20.32;55.13;99221.28;10330929;28;1054;-65
2023/07/21 03:05:37;;;;;;;;;;;;;;;20.32;55.16;99226.56;10330206;28;895;-65
2023/07/21 03:10:33;;;;;;;;;;;;;;;20.31;55.17;99224.88;10329303;28;788;-65
2023/07/21 03:15:29;;;;;;;;;;;;;;;20.30;55.05;99223.19;10329681;28;1901;-65
2023/07/21 03:20:25;;;;;;;;;;;;;;;20.30;55.25;99223.19;10330139;28;808;-65
2023/07/21 03:25:21;;;;;;;;;;;;;;;20.30;55.08;99224.97;10329305;28;814;-65
2023/07/21 03:30:17;;;;;;;;;;;;;;;20.29;55.08;99220.63;10329381;28;1440;-65
2023/07/21 03:35:13;;;;;;;;;;;;;;;20.28;55.12;99222.44;10328854;28;1910;-65
2023/07/21 03:40:10;;;;;;;;;;;;;;;20.29;55.23;99220.63;10328291;28;979;-65
2023/07/21 03:45:06;;;;;;;;;;;;;;;20.28;55.21;99218.94;10327889;28;903;-65
2023/07/21 03:50:02;;;;;;;;;;;;;;;20.27;55.21;99225.16;10326837;28;963;-65
2023/07/21 03:54:58;;;;;;;;;;;;;;;20.26;55.28;99216.38;10328220;28;1961;-65
2023/07/21 03:59:54;;;;;;;;;;;;;;;20.25;55.11;99219.97;10327957;28;747;-65
2023/07/21 04:04:51;;;;;;;;;;;;;;;20.26;55.24;99220.81;10327763;28;813;-65
2023/07/21 04:09:47;;;;;;;;;;;;;;;20.25;55.16;99225.28;10328060;28;860;-65
2023/07/21 04:14:43;;;;;;;;;;;;;;;20.24;55.13;99215.63;10326712;28;1894;-65
2023/07/21 04:19:39;;;;;;;;;;;;;;;20.24;55.09;99220.06;10327078;28;886;-65
2023/07/21 04:24:34;;;;;;;;;;;;;;;20.22;55.19;99217.50;10327097;28;852;-65
2023/07/21 04:29:30;;;;;;;;;;;;;;;20.23;55.24;99207.78;10326570;28;1269;-65
2023/07/21 04:34:26;;;;;;;;;;;;;;;20.26;55.23;99210.25;10327354;28;1918;-65
2023/07/21 04:39:23;;;;;;;;;;;;;;;20.27;55.03;99218.06;10326549;28;1043;-65
2023/07/21 04:44:20;;;;;;;;;;;;;;;20.29;55.01;99210.03;10326884;28;842;-65
2023/07/21 04:49:16;;;;;;;;;;;;;;;20.29;55.14;99208.25;10326112;28;887;-64
2023/07/21 04:54:12;;;;;;;;;;;;;;;20.32;54.98;99215.13;10326510;28;1973;-64
2023/07/21 04:59:08;;;;;;;;;;;;;;;20.33;54.96;99212.41;10326791;28;766;-65
2023/07/21 05:04:04;;;;;;;;;;;;;;;20.35;55.09;99221.09;10326317;28;962;-65
2023/07/21 05:09:00;;;;;;;;;;;;;;;20.38;55.12;99227.13;10325598;28;845;-64
2023/07/21 05:13:56;;;;;;;;;;;;;;;20.41;55.00;99229.59;10326073;28;1964;-65
2023/07/21 05:18:52;;;;;;;;;;;;;;;20.41;54.91;99229.59;10325413;28;830;-65
2023/07/21 05:23:48;;;;;;;;;;;;;;;20.41;54.91;99229.59;10325354;28;794;-65
2023/07/21 05:28:46;;;;;;;;;;;;;;;20.42;54.85;99233.94;10324661;28;893;-64
2023/07/21 05:33:42;;;;;;;;;;;;;;;20.40;55.04;99243.78;10325085;28;1724;-64
2023/07/21 05:38:38;;;;;;;;;;;;;;;20.39;55.27;99236.81;10324937;28;1969;-64
2023/07/21 05:43:34;;;;;;;;;;;;;;;20.39;55.20;99231.50;10325430;28;966;-64
2023/07/21 05:48:30;;;;;;;;;;;;;;;20.39;55.17;99232.34;10325139;28;924;-65
2023/07/21 05:53:26;;;;;;;;;;;;;;;20.40;55.41;99235.84;10324232;28;932;-65
2023/07/21 05:58:22;;;;;;;;;;;;;;;20.41;55.21;99232.22;10325255;28;1955;-65
2023/07/21 06:03:18;;;;;;;;;;;;;;;20.42;55.17;99226.00;10325000;28;982;-65
2023/07/21 06:08:17;;;;;;;;;;;;;;;20.42;55.09;99232.16;10324622;28;983;-65
2023/07/21 06:13:13;;;;;;;;;;;;;;;20.42;55.13;99228.66;10327402;28;899;-65
2023/07/21 06:18:09;;;;;;;;;;;;;;;20.39;55.03;99221.75;10332471;28;1898;-64
2023/07/21 06:23:04;;;;;;;;;;;;;;;20.40;55.17;99230.53;10331703;28;797;-65
2023/07/21 06:28:00;;;;;;;;;;;;;;;20.41;54.91;99221.66;10331478;28;867;-65
2023/07/21 06:32:56;;;;;;;;;;;;;;;20.40;54.95;99225.25;10332120;28;1413;-66
2023/07/21 06:37:52;;;;;;;;;;;;;;;20.38;55.02;99221.84;10330487;28;1969;-65
2023/07/21 06:42:48;;;;;;;;;;;;;;;20.40;54.95;99222.59;10330891;28;885;-65
2023/07/21 06:47:44;;;;;;;;;;;;;;;20.39;54.95;99221.75;10330764;28;1021;-65
2023/07/21 06:52:40;;;;;;;;;;;;;;;20.40;55.12;99223.44;10330684;28;865;-65
2023/07/21 06:57:36;;;;;;;;;;;;;;;20.40;54.99;99225.25;10330376;28;1949;-65
2023/07/21 07:02:33;;;;;;;;;;;;;;;20.45;54.91;99216.06;10330209;28;877;-65
2023/07/21 07:07:29;;;;;;;;;;;;;;;20.48;54.82;99213.22;10330664;28;846;-64
2023/07/21 07:12:24;;;;;;;;;;;;;;;20.50;54.87;99208.69;10329986;28;893;-65
2023/07/21 07:17:20;;;;;;;;;;;;;;;20.51;55.04;99209.53;10329622;28;1949;-65
2023/07/21 07:22:17;;;;;;;;;;;;;;;20.53;54.78;99205.84;10330204;28;874;-65
2023/07/21 07:27:13;;;;;;;;;;;;;;;20.54;54.90;99214.66;10328260;28;851;-64
2023/07/21 07:32:09;;;;;;;;;;;;;;;20.53;54.83;99213.78;10329591;28;1128;-64
2023/07/21 07:37:05;;;;;;;;;;;;;;;20.53;54.92;99218.25;10328812;28;1969;-64
2023/07/21 07:42:01;;;;;;;;;;;;;;;20.51;54.81;99204.25;10328694;28;802;-64
2023/07/21 07:46:57;;;;;;;;;;;;;;;20.52;54.98;99211.25;10328534;28;894;-64
2023/07/21 07:51:53;;;;;;;;;;;;;;;20.53;54.91;99213.78;10328593;28;803;-64
2023/07/21 07:56:51;;;;;;;;;;;;;;;20.54;54.84;99212.91;10328634;28;1893;-65
2023/07/21 08:01:47;;;;;;;;;;;;;;;20.57;54.79;99214.50;10327847;28;978;-68
2023/07/21 08:06:42;;;;;;;;;;;;;;;20.60;54.81;99208.16;10327751;28;782;-63
2023/07/21 08:11:38;;;;;;;;;;;;;;;20.59;54.64;99209.94;10326939;28;788;-63
2023/07/21 08:16:36;;;;;;;;;;;;;;;20.59;54.67;99212.56;10327459;28;1949;-64
2023/07/21 08:21:33;;;;;;;;;;;;;;;20.60;54.57;99203.69;10327289;28;859;-64
2023/07/21 08:26:29;;;;;;;;;;;;;;;20.60;54.59;99208.16;10326996;28;841;-64
2023/07/21 08:31:25;;;;;;;;;;;;;;;20.62;54.66;99211.53;10325936;28;1282;-64
2023/07/21 08:36:21;;;;;;;;;;;;;;;20.62;54.74;99204.47;10327052;28;1906;-64
2023/07/21 08:41:17;;;;;;;;;;;;;;;20.60;54.63;99210.81;10326352;28;776;-64
2023/07/21 08:46:15;;;;;;;;;;;;;;;20.58;54.78;99205.59;10326389;28;898;-64
2023/07/21 08:51:11;;;;;;;;;;;;;;;20.63;54.55;99200.00;10326085;28;957;-64
2023/07/21 08:56:06;;;;;;;;;;;;;;;20.62;54.61;99188.56;10326567;28;1965;-64
2023/07/21 09:01:05;;;;;;;;;;;;;;;20.63;54.64;99198.22;10326451;28;941;-64
2023/07/21 09:06:01;;;;;;;;;;;;;;;20.62;54.55;99193.00;10326371;28;911;-64
2023/07/21 09:10:57;;;;;;;;;;;;;;;20.65;54.54;99185.72;10326145;28;803;-64
2023/07/21 09:15:53;;;;;;;;;;;;;;;20.63;54.50;99182.31;10326053;28;1956;-64
2023/07/21 09:20:49;;;;;;;;;;;;;;;20.59;54.58;99180.81;10326074;28;978;-64
2023/07/21 09:25:45;;;;;;;;;;;;;;;20.58;54.54;99169.38;10325358;28;860;-64
2023/07/21 09:30:41;;;;;;;;;;;;;;;20.57;54.69;99177.44;10326016;28;1124;-64
2023/07/21 09:35:37;;;;;;;;;;;;;;;20.54;54.57;99175.81;10325477;28;1906;-64
2023/07/21 09:40:33;;;;;;;;;;;;;;;20.53;54.64;99187.31;10324475;28;1107;-64
2023/07/21 09:45:29;;;;;;;;;;;;;;;20.53;54.76;99186.47;10325029;28;874;-64
2023/07/21 09:50:24;;;;;;;;;;;;;;;20.52;54.66;99182.13;10331923;28;882;-64
2023/07/21 09:55:20;;;;;;;;;;;;;;;20.53;54.64;99178.53;10333180;28;1871;-64
2023/07/21 10:00:16;;;;;;;;;;;;;;;20.52;54.59;99185.63;10332636;28;904;-64
2023/07/21 10:05:13;;;;;;;;;;;;;;;20.54;54.72;99188.19;10333051;28;1125;-64
2023/07/21 10:10:09;;;;;;;;;;;;;;;20.53;54.52;99189.97;10332217;28;891;-64
2023/07/21 10:15:06;;;;;;;;;;;;;;;20.54;54.51;99194.34;10333145;28;1939;-64
2023/07/21 10:20:02;;;;;;;;;;;;;;;20.53;54.65;99184.66;10331770;28;875;-64
2023/07/21 10:24:58;;;;;;;;;;;;;;;20.54;54.57;99191.72;10332948;28;878;-64
2023/07/21 10:29:57;;;;;;;;;;;;;;;20.56;54.53;99194.25;10331604;28;1126;-65
2023/07/21 10:34:53;;;;;;;;;;;;;;;20.55;54.48;99189.91;10331393;28;1965;-65
2023/07/21 10:39:49;;;;;;;;;;;;;;;20.55;54.56;99179.31;10331428;28;868;-64
2023/07/21 10:44:45;;;;;;;;;;;;;;;20.54;54.45;99183.78;10331585;28;798;-65
2023/07/21 10:49:41;;;;;;;;;;;;;;;20.60;54.39;99179.03;10330994;28;867;-65
2023/07/21 10:54:37;;;;;;;;;;;;;;;20.59;54.47;99175.50;10330120;28;1890;-65
2023/07/21 10:59:33;;;;;;;;;;;;;;;20.55;54.46;99174.88;10330068;28;783;-65
2023/07/21 11:04:29;;;;;;;;;;;;;;;20.53;54.49;99176.72;10330251;28;829;-65
2023/07/21 11:09:24;;;;;;;;;;;;;;;20.56;54.46;99173.91;10327820;28;1129;-65
2023/07/21 11:14:20;;;;;;;;;;;;;;;20.58;54.40;99171.16;10329507;28;1955;-65
2023/07/21 11:19:16;;;;;;;;;;;;;;;20.59;54.41;99170.22;10329161;28;1011;-65
2023/07/21 11:24:12;;;;;;;;;;;;;;;20.57;54.60;99165.03;10329518;28;850;-65
2023/07/21 11:29:08;;;;;;;;;;;;;;;20.56;54.47;99168.59;10330140;28;924;-64
2023/07/21 11:34:04;;;;;;;;;;;;;;;20.58;54.62;99165.88;10329710;28;1910;-65
2023/07/21 11:39:00;;;;;;;;;;;;;;;20.58;54.43;99165.88;10329376;28;822;-65
2023/07/21 11:43:56;;;;;;;;;;;;;;;20.60;54.40;99160.50;10329379;28;856;-66
2023/07/21 11:48:52;;;;;;;;;;;;;;;20.60;54.60;99152.56;10328549;28;877;-66
2023/07/21 11:53:48;;;;;;;;;;;;;;;20.58;54.55;99152.63;10328310;28;857;-65
2023/07/21 11:58:44;;;;;;;;;;;;;;;20.57;54.55;99151.78;10328658;28;1975;-65
2023/07/21 12:03:43;;;;;;;;;;;;;;;20.59;54.67;99143.72;10329191;28;988;-65
2023/07/21 12:08:39;;;;;;;;;;;;;;;20.58;54.55;99136.75;10328684;28;916;-65
2023/07/21 12:13:34;;;;;;;;;;;;;;;20.60;54.57;99132.22;10326307;28;936;-65
2023/07/21 12:18:30;;;;;;;;;;;;;;;20.68;54.28;99140.50;10327841;28;1905;-65
2023/07/21 12:23:26;;;;;;;;;;;;;;;20.74;54.29;99136.59;10327143;28;890;-65
2023/07/21 12:28:22;;;;;;;;;;;;;;;20.71;54.43;99127.06;10327061;28;805;-65
2023/07/21 12:33:18;;;;;;;;;;;;;;;20.64;54.51;99122.25;10328293;28;1265;-65
2023/07/21 12:38:14;;;;;;;;;;;;;;;20.67;54.59;99119.41;10325912;28;1969;-65
2023/07/21 12:43:10;;;;;;;;;;;;;;;20.63;54.56;99124.06;10326386;28;932;-65
2023/07/21 12:48:06;;;;;;;;;;;;;;;20.60;54.52;99115.47;10326878;28;868;-65
2023/07/21 12:53:01;;;;;;;;;;;;;;;20.65;54.55;99110.75;10326133;28;893;-65
2023/07/21 12:57:57;;;;;;;;;;;;;;;20.66;54.33;99112.44;10326533;28;1893;-65
2023/07/21 13:02:53;;;;;;;;;;;;;;;20.69;54.36;99110.41;10325692;28;769;-65
2023/07/21 13:07:51;;;;;;;;;;;;;;;20.69;54.47;99107.75;10325542;28;885;-65
2023/07/21 13:12:47;;;;;;;;;;;;;;;20.73;54.27;99108.44;10326687;28;874;-65
2023/07/21 13:17:43;;;;;;;;;;;;;;;20.75;53.99;99096.78;10325285;28;1894;-65
2023/07/21 13:22:39;;;;;;;;;;;;;;;20.69;54.21;99105.13;10325155;28;758;-65
2023/07/21 13:27:35;;;;;;;;;;;;;;;20.70;54.24;99098.03;10325677;28;882;-65
2023/07/21 13:32:31;;;;;;;;;;;;;;;20.76;53.96;99111.72;10324274;28;1405;-65
2023/07/21 13:37:27;;;;;;;;;;;;;;;20.78;54.14;99106.34;10324800;28;1981;-65
2023/07/21 13:42:23;;;;;;;;;;;;;;;20.75;54.30;99112.69;10325453;28;828;-65
2023/07/21 13:47:19;;;;;;;;;;;;;;;20.76;54.26;99105.56;10325287;28;794;-65
2023/07/21 13:52:15;;;;;;;;;;;;;;;20.81;54.09;99111.41;10325192;28;991;-65
2023/07/21 13:57:10;;;;;;;;;;;;;;;20.70;54.29;99112.13;10324423;28;1898;-65
2023/07/21 14:02:06;;;;;;;;;;;;;;;20.70;54.49;99124.53;10324580;28;866;-64
2023/07/21 14:07:03;;;;;;;;;;;;;;;20.73;54.16;99119.88;10324615;28;880;-64
2023/07/21 14:11:59;;;;;;;;;;;;;;;20.71;54.26;99119.13;10324848;28;772;-65
2023/07/21 14:16:55;;;;;;;;;;;;;;;20.68;54.22;99124.63;10324294;28;1897;-65
2023/07/21 14:21:51;;;;;;;;;;;;;;;20.62;54.53;99121.50;10323756;28;873;-65
2023/07/21 14:26:46;;;;;;;;;;;;;;;20.57;54.56;99125.31;10324220;28;830;-65
2023/07/21 14:31:42;;;;;;;;;;;;;;;20.57;54.68;99132.41;10324732;28;1144;-65
2023/07/21 14:36:39;;;;;;;;;;;;;;;20.58;54.47;99139.41;10330758;28;1910;-65
2023/07/21 14:41:34;;;;;;;;;;;;;;;20.56;54.49;99167.75;10331099;28;902;-65
2023/07/21 14:46:30;;;;;;;;;;;;;;;20.55;54.56;99169.56;10331606;28;866;-65
2023/07/21 14:51:26;;;;;;;;;;;;;;;20.54;54.68;99180.25;10330259;28;817;-65
2023/07/21 14:56:22;;;;;;;;;;;;;;;20.53;54.65;99181.16;10330595;28;1932;-65
2023/07/21 15:01:18;;;;;;;;;;;;;;;20.53;54.45;99199.72;10330464;28;1067;-65
2023/07/21 15:06:14;;;;;;;;;;;;;;;20.52;54.54;99205.97;10330281;28;838;-64
2023/07/21 15:11:10;;;;;;;;;;;;;;;20.52;54.34;99208.59;10330719;28;799;-65
2023/07/21 15:16:06;;;;;;;;;;;;;;;20.52;54.50;99214.75;10329888;28;1898;-65
2023/07/21 15:21:04;;;;;;;;;;;;;;;20.51;54.66;99214.84;10330428;28;944;-65
2023/07/21 15:26:00;;;;;;;;;;;;;;;20.53;54.65;99221.72;10329083;28;901;-65
2023/07/21 15:30:55;;;;;;;;;;;;;;;20.51;54.66;99220.13;10329046;28;1140;-65
2023/07/21 15:35:51;;;;;;;;;;;;;;;20.53;54.57;99221.72;10328857;28;1906;-65
2023/07/21 15:40:47;;;;;;;;;;;;;;;20.52;54.64;99232.44;10330247;28;888;-65
2023/07/21 15:45:43;;;;;;;;;;;;;;;20.56;54.47;99231.31;10327582;28;865;-65
2023/07/21 15:50:39;;;;;;;;;;;;;;;20.57;54.52;99225.09;10328531;28;795;-64
2023/07/21 15:55:35;;;;;;;;;;;;;;;20.61;54.36;99223.09;10328231;28;1958;-64
2023/07/21 16:00:31;;;;;;;;;;;;;;;20.70;54.16;99233.94;10327530;28;897;-66
2023/07/21 16:05:26;;;;;;;;;;;;;;;20.62;54.45;99236.25;10328005;28;806;-65
2023/07/21 16:10:23;;;;;;;;;;;;;;;20.58;54.47;99243.50;10328274;28;809;-65
2023/07/21 16:15:19;;;;;;;;;;;;;;;20.58;54.35;99240.00;10328112;28;1953;-65
2023/07/21 16:20:15;;;;;;;;;;;;;;;20.59;54.34;99249.66;10327266;28;910;-65
2023/07/21 16:25:11;;;;;;;;;;;;;;;20.57;54.46;99243.63;10327039;28;882;-65
2023/07/21 16:30:07;;;;;;;;;;;;;;;20.57;54.54;99243.63;10325962;28;1404;-65
2023/07/21 16:35:03;;;;;;;;;;;;;;;20.57;54.60;99251.56;10326766;28;1977;-65
2023/07/21 16:40:00;;;;;;;;;;;;;;;20.58;54.24;99259.41;10326526;28;893;-61
2023/07/21 16:44:56;;;;;;;;;;;;;;;20.57;54.40;99267.44;10326785;28;825;-65
2023/07/21 16:49:52;;;;;;;;;;;;;;;20.53;54.39;99265.91;10326523;28;897;-65
2023/07/21 16:54:47;;;;;;;;;;;;;;;20.53;54.32;99273.84;10326824;28;1956;-65
2023/07/21 16:59:43;;;;;;;;;;;;;;;20.51;54.45;99275.72;10325735;28;916;-64
2023/07/21 17:04:40;;;;;;;;;;;;;;;20.49;54.55;99282.94;10326125;28;875;-65
2023/07/21 17:09:36;;;;;;;;;;;;;;;20.49;54.89;99280.28;10326347;28;788;-65
2023/07/21 17:14:32;;;;;;;;;;;;;;;20.50;54.98;99276.69;10325814;28;1963;-65
2023/07/21 17:19:28;;;;;;;;;;;;;;;20.51;54.65;99275.72;10325557;28;990;-65
2023/07/21 17:24:26;;;;;;;;;;;;;;;20.52;54.80;99288.03;10325951;28;851;-65
2023/07/21 17:29:22;;;;;;;;;;;;;;;20.52;54.83;99282.75;10325882;28;848;-65
2023/07/21 17:34:18;;;;;;;;;;;;;;;20.52;54.78;99288.03;10324506;28;1914;-65
2023/07/21 17:39:14;;;;;;;;;;;;;;;20.49;54.65;99283.78;10324553;28;984;-65
2023/07/21 17:44:10;;;;;;;;;;;;;;;20.48;54.82;99286.50;10325028;28;763;-65
2023/07/21 17:49:05;;;;;;;;;;;;;;;20.48;54.69;99292.66;10325758;28;836;-65
2023/07/21 17:54:01;;;;;;;;;;;;;;;20.48;54.79;99294.44;10325014;28;837;-66
2023/07/21 17:58:57;;;;;;;;;;;;;;;20.49;54.83;99301.47;10325215;28;1955;-65
2023/07/21 18:03:54;;;;;;;;;;;;;;;20.49;54.85;99297.03;10324010;28;941;-65
2023/07/21 18:08:50;;;;;;;;;;;;;;;20.50;54.70;99303.16;10328008;28;930;-65
2023/07/21 18:13:46;;;;;;;;;;;;;;;20.51;54.86;99310.13;10332921;28;911;-65
2023/07/21 18:18:42;;;;;;;;;;;;;;;20.49;54.82;99310.25;10331470;28;1886;-66
2023/07/21 18:23:38;;;;;;;;;;;;;;;20.47;54.79;99306.00;10331314;28;893;-67
2023/07/21 18:28:34;;;;;;;;;;;;;;;20.47;54.99;99308.66;10331919;28;953;-65
2023/07/21 18:33:30;;;;;;;;;;;;;;;20.52;54.76;99317.16;10330866;28;1275;-65
2023/07/21 18:38:27;;;;;;;;;;;;;;;20.53;54.93;99316.19;10331844;28;1898;-65
2023/07/21 18:43:22;;;;;;;;;;;;;;;20.52;54.66;99318.00;10331339;28;772;-65
2023/07/21 18:48:18;;;;;;;;;;;;;;;20.57;54.71;99323.06;10330576;28;1031;-65
2023/07/21 18:53:14;;;;;;;;;;;;;;;20.51;54.73;99323.38;10330847;28;770;-65
2023/07/21 18:58:10;;;;;;;;;;;;;;;20.46;54.94;99321.03;10330014;28;1878;-65
2023/07/21 19:03:06;;;;;;;;;;;;;;;20.46;54.80;99328.09;10330402;28;896;-66
2023/07/21 19:08:03;;;;;;;;;;;;;;;20.43;54.84;99331.78;10330362;28;727;-65
2023/07/21 19:12:58;;;;;;;;;;;;;;;20.43;54.85;99338.88;10330071;28;978;-65
2023/07/21 19:17:55;;;;;;;;;;;;;;;20.41;55.10;99336.34;10330422;28;1885;-65
2023/07/21 19:22:51;;;;;;;;;;;;;;;20.40;54.87;99357.59;10330160;28;853;-65
2023/07/21 19:27:47;;;;;;;;;;;;;;;20.40;55.08;99355.81;10329545;28;969;-65
2023/07/21 19:32:43;;;;;;;;;;;;;;;20.39;55.09;99363.84;10329225;28;1092;-66
2023/07/21 19:37:39;;;;;;;;;;;;;;;20.38;54.96;99373.56;10329094;28;1902;-65
2023/07/21 19:42:35;;;;;;;;;;;;;;;20.36;54.95;99376.31;10328928;28;772;-65
2023/07/21 19:47:31;;;;;;;;;;;;;;;20.38;54.97;99391.25;10328696;28;924;-65
2023/07/21 19:52:27;;;;;;;;;;;;;;;20.36;54.97;99391.38;10328561;28;787;-65
2023/07/21 19:57:23;;;;;;;;;;;;;;;20.36;55.02;99399.31;10327653;28;1886;-65
2023/07/21 20:02:19;;;;;;;;;;;;;;;20.35;54.84;99403.72;10328032;28;1005;-65
2023/07/21 20:07:15;;;;;;;;;;;;;;;20.34;55.00;99409.97;10327910;28;849;-65
2023/07/21 20:12:11;;;;;;;;;;;;;;;20.33;55.10;99421.50;10327647;28;775;-65
2023/07/21 20:17:06;;;;;;;;;;;;;;;20.34;54.95;99420.56;10328025;28;1948;-65
2023/07/21 20:22:02;;;;;;;;;;;;;;;20.32;54.91;99427.72;10327282;28;888;-65
2023/07/21 20:26:58;;;;;;;;;;;;;;;20.33;54.91;99434.75;10327883;28;905;-65
2023/07/21 20:31:54;;;;;;;;;;;;;;;20.32;55.08;99438.31;10326233;28;1328;-65
2023/07/21 20:36:53;;;;;;;;;;;;;;;20.32;55.03;99443.63;10326571;28;1964;-65
2023/07/21 20:41:49;;;;;;;;;;;;;;;20.33;54.86;99453.28;10326470;28;823;-65
2023/07/21 20:46:45;;;;;;;;;;;;;;;20.33;55.02;99458.56;10326388;28;961;-65
2023/07/21 20:51:41;;;;;;;;;;;;;;;20.31;54.99;99471.03;10326362;28;1031;-65
2023/07/21 20:56:37;;;;;;;;;;;;;;;20.31;55.12;99472.84;10326101;28;1956;-65
2023/07/21 21:01:33;;;;;;;;;;;;;;;20.31;55.14;99478.97;10326016;28;1073;-65
2023/07/21 21:06:29;;;;;;;;;;;;;;;20.30;54.93;99485.22;10325840;28;994;-65
2023/07/21 21:11:25;;;;;;;;;;;;;;;20.29;54.91;99491.44;10325738;28;1126;-65
2023/07/21 21:16:21;;;;;;;;;;;;;;;20.30;54.87;99497.56;10326212;28;1960;-65
2023/07/21 21:21:17;;;;;;;;;;;;;;;20.30;54.91;99503.75;10326493;28;828;-65
2023/07/21 21:26:13;;;;;;;;;;;;;;;20.29;55.08;99506.47;10325446;28;774;-65
2023/07/21 21:31:09;;;;;;;;;;;;;;;20.28;54.93;99505.63;10325402;28;1400;-65
2023/07/21 21:36:04;;;;;;;;;;;;;;;20.28;54.88;99508.28;10325203;28;1965;-65
2023/07/21 21:41:00;;;;;;;;;;;;;;;20.28;54.79;99515.38;10324565;28;904;-65
2023/07/21 21:45:56;;;;;;;;;;;;;;;20.27;54.62;99511.84;10331578;28;869;-65
2023/07/21 21:50:53;;;;;;;;;;;;;;;20.27;54.91;99514.50;10333277;28;813;-65
2023/07/21 21:55:48;;;;;;;;;;;;;;;20.27;55.00;99519.78;10332940;28;1894;-65
2023/07/21 22:00:44;;;;;;;;;;;;;;;20.27;54.89;99525.06;10333879;28;866;-65
2023/07/21 22:05:40;;;;;;;;;;;;;;;20.26;55.02;99520.72;10332862;28;865;-65
2023/07/21 22:10:36;;;;;;;;;;;;;;;20.26;54.96;99518.09;10332411;28;782;-65
2023/07/21 22:15:32;;;;;;;;;;;;;;;20.25;54.71;99521.69;10332220;28;1890;-65
2023/07/21 22:20:28;;;;;;;;;;;;;;;20.25;54.99;99516.41;10331468;28;944;-65
2023/07/21 22:25:24;;;;;;;;;;;;;;;20.24;54.85;99522.59;10332461;28;925;-65
2023/07/21 22:30:19;;;;;;;;;;;;;;;20.24;54.83;99521.75;10331914;28;1144;-65
2023/07/21 22:35:16;;;;;;;;;;;;;;;20.24;54.91;99522.59;10331645;28;1964;-65
2023/07/21 22:40:12;;;;;;;;;;;;;;;20.22;54.84;99532.41;10330864;28;964;-64
2023/07/21 22:45:08;;;;;;;;;;;;;;;20.22;54.74;99537.72;10331230;28;886;-64
2023/07/21 22:50:05;;;;;;;;;;;;;;;20.22;54.76;99543.00;10331790;28;841;-64
2023/07/21 22:55:01;;;;;;;;;;;;;;;20.22;54.88;99540.34;10330091;28;1882;-64
2023/07/21 22:59:56;;;;;;;;;;;;;;;20.22;54.88;99537.72;10331486;28;818;-64
2023/07/21 23:04:52;;;;;;;;;;;;;;;20.21;54.81;99537.81;10330604;28;928;-65
2023/07/21 23:09:49;;;;;;;;;;;;;;;20.21;54.77;99543.97;10330350;28;755;-65
2023/07/21 23:14:45;;;;;;;;;;;;;;;20.20;54.82;99544.91;10329671;28;1951;-65
2023/07/21 23:19:41;;;;;;;;;;;;;;;20.19;54.76;99551.13;10329862;28;891;-65
2023/07/21 23:24:36;;;;;;;;;;;;;;;20.19;54.79;99544.97;10330294;28;901;-65
2023/07/21 23:29:32;;;;;;;;;;;;;;;20.19;54.72;99550.28;10330307;28;812;-65
2023/07/21 23:34:28;;;;;;;;;;;;;;;20.17;54.87;99544.22;10329111;28;1909;-65
2023/07/21 23:39:24;;;;;;;;;;;;;;;20.18;54.75;99546.78;10329748;28;814;-65
2023/07/21 23:44:20;;;;;;;;;;;;;;;20.17;54.67;99536.28;10329820;28;897;-65
2023/07/21 23:49:16;;;;;;;;;;;;;;;20.16;54.64;99543.38;10328204;28;779;-65
2023/07/21 23:54:12;;;;;;;;;;;;;;;20.16;54.72;99537.22;10328496;28;787;-65
2023/07/21 23:59:08;;;;;;;;;;;;;;;20.16;54.74;99537.22;10328272;28;1897;-65
